createdAt,value
2022-12-23T00:02:30.244Z,94.23
2022-12-23T00:05:38.202Z,93.88
2022-12-23T00:08:42.041Z,94.00
2022-12-23T00:12:04.624Z,93.90
2022-12-23T00:15:07.525Z,93.73
2022-12-23T00:18:10.131Z,93.67
2022-12-23T00:21:16.470Z,93.74
2022-12-23T00:24:19.160Z,93.81
2022-12-23T00:27:21.469Z,93.69
2022-12-23T00:30:24.535Z,93.58
2022-12-23T00:33:29.749Z,93.62
2022-12-23T00:36:32.492Z,93.59
2022-12-23T00:39:55.166Z,93.60
2022-12-23T00:42:59.873Z,93.54
2022-12-23T00:46:02.204Z,93.62
2022-12-23T00:49:23.887Z,93.57
2022-12-23T00:52:27.133Z,93.74
2022-12-23T00:55:30.502Z,93.82
2022-12-23T00:58:32.824Z,93.77
2022-12-23T01:01:54.508Z,93.67
2022-12-23T01:05:15.432Z,93.48
2022-12-23T01:08:18.014Z,93.76
2022-12-23T01:11:20.335Z,93.75
2022-12-23T01:14:23.500Z,93.84
2022-12-23T01:17:25.852Z,93.82
2022-12-23T01:20:28.523Z,93.87
2022-12-23T01:23:31.278Z,94.00
2022-12-23T01:26:34.072Z,93.91
2022-12-23T01:29:36.420Z,93.88
2022-12-23T01:32:39.020Z,93.83
2022-12-23T01:35:41.340Z,93.80
2022-12-23T01:38:44.044Z,93.75
2022-12-23T01:42:04.871Z,93.75
2022-12-23T01:45:16.188Z,93.62
2022-12-23T01:48:21.957Z,93.73
2022-12-23T01:51:30.008Z,93.61
2022-12-23T01:54:33.023Z,93.55
2022-12-23T01:57:40.112Z,93.46
2022-12-23T02:01:01.455Z,93.46
2022-12-23T02:04:09.699Z,93.39
2022-12-23T02:07:32.100Z,93.43
2022-12-23T02:10:52.217Z,93.40
2022-12-23T02:14:38.080Z,93.48
2022-12-23T02:18:11.393Z,93.63
2022-12-23T02:21:22.968Z,93.66
2022-12-23T02:24:59.317Z,93.58
2022-12-23T02:28:42.463Z,93.73
2022-12-23T02:31:58.253Z,93.95
2022-12-23T02:35:09.587Z,94.25
2022-12-23T02:38:20.888Z,94.39
2022-12-23T02:41:31.506Z,94.43
2022-12-23T02:44:45.069Z,94.39
2022-12-23T02:47:55.137Z,94.45
2022-12-23T02:51:00.265Z,94.53
2022-12-23T02:54:07.117Z,94.54
2022-12-23T02:57:12.722Z,94.48
2022-12-23T03:00:16.054Z,94.35
2022-12-23T03:03:21.143Z,94.47
2022-12-23T03:06:29.274Z,94.69
2022-12-23T03:09:56.081Z,94.57
2022-12-23T03:13:10.042Z,94.84
2022-12-23T03:16:15.611Z,94.88
2022-12-23T03:19:30.047Z,95.12
2022-12-23T03:22:38.151Z,95.12
2022-12-23T03:25:53.757Z,95.14
2022-12-23T03:29:03.829Z,95.21
2022-12-23T03:32:08.242Z,95.18
2022-12-23T03:35:15.809Z,95.23
2022-12-23T03:38:19.384Z,95.29
2022-12-23T03:41:27.988Z,95.70
2022-12-23T03:44:35.454Z,96.01
2022-12-23T03:47:46.808Z,95.93
2022-12-23T03:50:53.735Z,95.80
2022-12-23T03:54:07.825Z,95.97
2022-12-23T03:57:12.306Z,95.84
2022-12-23T04:00:15.023Z,96.02
2022-12-23T04:03:26.332Z,96.04
2022-12-23T04:06:34.132Z,96.20
2022-12-23T04:09:37.903Z,96.36
2022-12-23T04:12:40.647Z,97.04
2022-12-23T04:15:43.465Z,96.90
2022-12-23T04:18:45.869Z,97.06
2022-12-23T04:21:48.526Z,96.89
2022-12-23T04:24:50.989Z,96.95
2022-12-23T04:27:53.646Z,97.10
2022-12-23T04:30:56.002Z,96.95
2022-12-23T04:33:58.730Z,97.17
2022-12-23T04:37:01.163Z,97.18
2022-12-23T04:40:04.732Z,97.35
2022-12-23T04:43:07.084Z,97.22
2022-12-23T04:46:09.814Z,97.42
2022-12-23T04:49:12.154Z,97.56
2022-12-23T04:52:14.857Z,97.52
2022-12-23T04:55:17.187Z,97.93
2022-12-23T04:58:22.162Z,98.34
2022-12-23T05:01:24.635Z,98.40
2022-12-23T05:04:27.467Z,98.62
2022-12-23T05:07:29.941Z,98.51
2022-12-23T05:10:32.673Z,98.57
2022-12-23T05:13:35.070Z,98.61
2022-12-23T05:16:38.050Z,98.44
2022-12-23T05:19:40.403Z,98.54
2022-12-23T05:22:43.052Z,98.27
2022-12-23T05:25:51.803Z,98.38
2022-12-23T05:28:55.088Z,98.43
2022-12-23T05:31:57.544Z,98.22
2022-12-23T05:35:00.182Z,98.17
2022-12-23T05:38:03.385Z,98.08
2022-12-23T05:41:06.344Z,97.92
2022-12-23T05:44:08.654Z,97.50
2022-12-23T05:47:11.667Z,97.30
2022-12-23T05:50:14.253Z,97.47
2022-12-23T05:53:17.100Z,97.37
2022-12-23T05:56:19.484Z,96.99
2022-12-23T05:59:23.572Z,97.04
2022-12-23T06:02:28.831Z,96.89
2022-12-23T06:05:31.567Z,96.88
2022-12-23T06:08:33.998Z,97.39
2022-12-23T06:11:36.641Z,97.51
2022-12-23T06:14:38.968Z,98.00
2022-12-23T06:17:41.752Z,97.72
2022-12-23T06:20:48.065Z,97.55
2022-12-23T06:23:50.766Z,96.76
2022-12-23T06:26:57.081Z,96.73
2022-12-23T06:30:00.256Z,96.81
2022-12-23T06:33:02.535Z,96.70
2022-12-23T06:36:05.721Z,96.75
2022-12-23T06:39:10.435Z,96.35
2022-12-23T06:42:13.047Z,96.28
2022-12-23T06:45:15.378Z,96.65
2022-12-23T06:48:18.074Z,96.79
2022-12-23T06:51:20.458Z,96.85
2022-12-23T06:54:23.087Z,96.77
2022-12-23T06:57:25.370Z,96.48
2022-12-23T07:00:28.057Z,96.63
2022-12-23T07:03:30.475Z,96.89
2022-12-23T07:06:33.130Z,96.88
2022-12-23T07:09:35.487Z,96.82
2022-12-23T07:12:38.632Z,96.79
2022-12-23T07:15:40.982Z,96.68
2022-12-23T07:18:43.929Z,96.69
2022-12-23T07:21:46.236Z,96.75
2022-12-23T07:24:48.845Z,96.62
2022-12-23T07:27:55.232Z,96.69
2022-12-23T07:30:58.080Z,96.55
2022-12-23T07:34:00.504Z,96.26
2022-12-23T07:37:03.145Z,95.81
2022-12-23T07:40:08.807Z,95.93
2022-12-23T07:43:11.827Z,95.90
2022-12-23T07:46:14.290Z,96.20
2022-12-23T07:49:17.034Z,95.78
2022-12-23T07:52:19.527Z,95.61
2022-12-23T07:55:22.545Z,95.36
2022-12-23T07:58:25.225Z,95.15
2022-12-23T08:01:27.949Z,95.38
2022-12-23T08:04:30.658Z,95.54
2022-12-23T08:07:33.043Z,95.04
2022-12-23T08:10:35.746Z,95.12
2022-12-23T08:13:40.083Z,94.84
2022-12-23T08:16:44.261Z,94.97
2022-12-23T08:19:47.889Z,95.00
2022-12-23T08:22:50.553Z,94.89
2022-12-23T08:26:08.144Z,94.95
2022-12-23T08:29:10.711Z,94.96
2022-12-23T08:32:13.079Z,94.55
2022-12-23T08:35:15.964Z,94.71
2022-12-23T08:38:18.352Z,94.47
2022-12-23T08:41:25.024Z,94.38
2022-12-23T08:44:28.142Z,94.42
2022-12-23T08:47:30.887Z,94.35
2022-12-23T08:50:40.717Z,94.58
2022-12-23T08:53:43.508Z,94.52
2022-12-23T08:56:45.810Z,94.53
2022-12-23T08:59:48.445Z,94.54
2022-12-23T09:02:50.887Z,94.57
2022-12-23T09:05:53.574Z,94.60
2022-12-23T09:08:56.230Z,94.49
2022-12-23T09:11:58.855Z,94.65
2022-12-23T09:15:01.237Z,94.75
2022-12-23T09:18:03.918Z,94.80
2022-12-23T09:21:10.964Z,94.46
2022-12-23T09:24:13.701Z,94.25
2022-12-23T09:27:16.288Z,94.56
2022-12-23T09:30:19.175Z,94.51
2022-12-23T09:33:21.783Z,94.01
2022-12-23T09:36:24.530Z,93.86
2022-12-23T09:39:26.864Z,93.84
2022-12-23T09:42:48.128Z,93.40
2022-12-23T09:45:53.399Z,92.56
2022-12-23T09:49:02.651Z,92.88
2022-12-23T09:52:13.736Z,92.85
2022-12-23T09:55:18.744Z,92.90
2022-12-23T09:58:35.679Z,93.01
2022-12-23T10:02:04.759Z,93.32
2022-12-23T10:05:46.182Z,93.14
2022-12-23T10:08:53.617Z,93.34
2022-12-23T10:11:57.140Z,93.40
2022-12-23T10:15:02.672Z,93.41
2022-12-23T10:18:28.225Z,93.53
2022-12-23T10:21:37.798Z,93.44
2022-12-23T10:24:47.636Z,93.49
2022-12-23T10:27:50.156Z,93.06
2022-12-23T10:31:31.149Z,92.90
2022-12-23T10:34:48.711Z,93.44
2022-12-23T10:38:03.522Z,93.54
2022-12-23T10:41:15.411Z,93.55
2022-12-23T10:44:24.503Z,93.22
2022-12-23T10:47:51.959Z,93.59
2022-12-23T10:51:01.436Z,93.70
2022-12-23T10:54:12.071Z,93.58
2022-12-23T10:57:16.783Z,94.00
2022-12-23T11:00:23.104Z,93.98
2022-12-23T11:03:30.129Z,94.44
2022-12-23T11:06:37.616Z,94.70
2022-12-23T11:09:54.467Z,94.46
2022-12-23T11:12:56.882Z,94.05
2022-12-23T11:16:32.264Z,94.13
2022-12-23T11:19:34.736Z,94.25
2022-12-23T11:22:49.725Z,93.90
2022-12-23T11:26:00.038Z,93.58
2022-12-23T11:29:10.686Z,93.86
2022-12-23T11:32:20.915Z,94.04
2022-12-23T11:35:30.104Z,94.09
2022-12-23T11:38:33.955Z,94.75
2022-12-23T11:41:40.184Z,94.52
2022-12-23T11:44:51.908Z,94.85
2022-12-23T11:47:56.232Z,95.07
2022-12-23T11:51:04.018Z,95.04
2022-12-23T11:54:06.676Z,94.90
2022-12-23T11:57:19.339Z,94.75
2022-12-23T12:00:36.663Z,94.13
2022-12-23T12:03:48.756Z,94.06
2022-12-23T12:06:56.564Z,93.89
2022-12-23T12:10:01.796Z,93.63
2022-12-23T12:13:08.317Z,93.59
2022-12-23T12:16:22.764Z,93.48
2022-12-23T12:19:57.776Z,93.79
2022-12-23T12:23:09.529Z,93.55
2022-12-23T12:26:23.579Z,93.63
2022-12-23T12:29:38.046Z,93.34
2022-12-23T12:32:46.420Z,93.49
2022-12-23T12:35:57.782Z,93.66
2022-12-23T12:39:02.641Z,93.45
2022-12-23T12:42:14.455Z,93.43
2022-12-23T12:45:22.684Z,93.01
2022-12-23T12:48:32.669Z,92.88
2022-12-23T12:51:46.596Z,92.69
2022-12-23T12:55:01.516Z,92.73
2022-12-23T12:58:03.971Z,92.74
2022-12-23T13:01:22.192Z,92.66
2022-12-23T13:04:30.532Z,92.74
2022-12-23T13:08:02.512Z,93.06
2022-12-23T13:11:33.780Z,93.54
2022-12-23T13:14:59.187Z,93.51
2022-12-23T13:18:21.651Z,93.30
2022-12-23T13:21:38.377Z,93.35
2022-12-23T13:24:58.734Z,93.20
2022-12-23T13:28:54.320Z,93.20
2022-12-23T13:32:27.894Z,92.92
2022-12-23T13:35:39.256Z,92.69
2022-12-23T13:39:00.206Z,92.85
2022-12-23T13:42:06.034Z,93.27
2022-12-23T13:45:17.539Z,93.48
2022-12-23T13:48:47.951Z,93.37
2022-12-23T13:52:11.515Z,93.62
2022-12-23T13:55:29.166Z,93.48
2022-12-23T13:58:32.792Z,93.23
2022-12-23T14:01:47.399Z,93.24
2022-12-23T14:04:59.157Z,93.20
2022-12-23T14:08:06.438Z,93.00
2022-12-23T14:11:09.064Z,93.00
2022-12-23T14:14:57.904Z,93.06
2022-12-23T14:18:48.929Z,92.91
2022-12-23T14:22:13.006Z,93.17
2022-12-23T14:25:45.935Z,93.15
2022-12-23T14:29:09.398Z,93.20
2022-12-23T14:32:44.479Z,93.27
2022-12-23T14:35:46.748Z,93.49
2022-12-23T14:39:11.136Z,93.85
2022-12-23T14:42:32.536Z,93.53
2022-12-23T14:45:42.376Z,93.35
2022-12-23T14:48:44.663Z,92.97
2022-12-23T14:51:50.867Z,92.76
2022-12-23T14:55:21.121Z,92.84
2022-12-23T14:58:20.090Z,92.84
2022-12-23T15:01:34.357Z,92.79
2022-12-23T15:04:46.504Z,92.86
2022-12-23T15:07:49.406Z,92.87
2022-12-23T15:10:52.166Z,92.70
2022-12-23T15:13:57.213Z,92.87
2022-12-23T15:17:00.333Z,92.88
2022-12-23T15:20:23.404Z,92.79
2022-12-23T15:23:26.428Z,92.87
2022-12-23T15:26:32.853Z,92.83
2022-12-23T15:29:35.652Z,92.93
2022-12-23T15:32:41.244Z,92.93
2022-12-23T15:35:44.358Z,92.86
2022-12-23T15:38:46.755Z,93.09
2022-12-23T15:41:49.391Z,93.10
2022-12-23T15:44:51.882Z,93.04
2022-12-23T15:47:55.179Z,92.80
2022-12-23T15:51:11.811Z,92.87
2022-12-23T15:54:23.035Z,93.21
2022-12-23T15:57:28.331Z,93.45
2022-12-23T16:00:41.076Z,93.20
2022-12-23T16:03:51.390Z,93.13
2022-12-23T16:06:55.496Z,93.03
2022-12-23T16:10:02.102Z,93.22
2022-12-23T16:13:04.442Z,93.18
2022-12-23T16:16:29.362Z,93.16
2022-12-23T16:19:43.820Z,93.14
2022-12-23T16:22:50.368Z,93.06
2022-12-23T16:25:53.579Z,93.11
2022-12-23T16:29:00.808Z,93.13
2022-12-23T16:32:03.259Z,93.18
2022-12-23T16:35:12.937Z,93.21
2022-12-23T16:38:33.297Z,93.35
2022-12-23T16:41:36.304Z,93.19
2022-12-23T16:44:39.562Z,93.12
2022-12-23T16:47:42.889Z,92.99
2022-12-23T16:50:46.233Z,93.08
2022-12-23T16:53:57.518Z,93.00
2022-12-23T16:57:00.107Z,93.31
2022-12-23T17:00:02.974Z,93.26
2022-12-23T17:03:07.103Z,93.33
2022-12-23T17:06:14.094Z,93.43
2022-12-23T17:09:16.465Z,93.56
2022-12-23T17:12:19.427Z,93.72
2022-12-23T17:15:24.233Z,93.66
2022-12-23T17:18:26.805Z,93.81
2022-12-23T17:21:33.491Z,93.76
2022-12-23T17:24:36.317Z,93.67
2022-12-23T17:27:40.314Z,93.65
2022-12-23T17:30:42.964Z,93.59
2022-12-23T17:33:45.349Z,93.59
2022-12-23T17:36:50.712Z,93.69
2022-12-23T17:39:53.388Z,93.62
2022-12-23T17:42:56.007Z,93.82
2022-12-23T17:45:58.433Z,93.73
2022-12-23T17:49:01.069Z,93.96
2022-12-23T17:52:06.497Z,94.21
2022-12-23T17:55:24.379Z,94.18
2022-12-23T17:58:26.839Z,94.12
2022-12-23T18:01:31.952Z,94.06
2022-12-23T18:04:34.687Z,94.07
2022-12-23T18:07:36.986Z,94.16
2022-12-23T18:10:40.767Z,93.79
2022-12-23T18:13:43.180Z,93.90
2022-12-23T18:16:46.414Z,93.80
2022-12-23T18:19:49.021Z,93.79
2022-12-23T18:22:53.725Z,93.65
2022-12-23T18:25:57.257Z,93.71
2022-12-23T18:28:59.926Z,93.69
2022-12-23T18:32:02.240Z,93.76
2022-12-23T18:35:22.277Z,93.67
2022-12-23T18:38:24.652Z,93.54
2022-12-23T18:41:28.051Z,93.64
2022-12-23T18:44:30.386Z,93.57
2022-12-23T18:47:33.075Z,93.36
2022-12-23T18:50:38.625Z,93.46
2022-12-23T18:53:41.687Z,93.28
2022-12-23T18:56:44.410Z,93.49
2022-12-23T18:59:47.058Z,93.40
2022-12-23T19:02:50.373Z,93.75
2022-12-23T19:05:55.060Z,94.40
2022-12-23T19:08:57.467Z,94.38
2022-12-23T19:12:00.408Z,94.23
2022-12-23T19:15:02.795Z,94.48
2022-12-23T19:18:05.557Z,94.40
2022-12-23T19:21:09.306Z,94.87
2022-12-23T19:24:12.048Z,94.76
2022-12-23T19:27:14.319Z,95.06
2022-12-23T19:30:18.176Z,94.62
2022-12-23T19:33:20.464Z,94.47
2022-12-23T19:36:23.490Z,94.34
2022-12-23T19:39:27.011Z,94.56
2022-12-23T19:42:30.558Z,94.61
2022-12-23T19:45:32.898Z,94.65
2022-12-23T19:48:36.454Z,94.78
2022-12-23T19:51:38.760Z,94.94
2022-12-23T19:54:41.410Z,94.91
2022-12-23T19:57:43.899Z,94.95
2022-12-23T20:00:46.541Z,94.90
2022-12-23T20:03:50.029Z,94.75
2022-12-23T20:06:52.455Z,94.96
2022-12-23T20:09:55.108Z,95.01
2022-12-23T20:12:57.421Z,94.99
2022-12-23T20:16:00.407Z,94.96
2022-12-23T20:19:03.616Z,94.92
2022-12-23T20:22:06.190Z,95.02
2022-12-23T20:25:08.783Z,95.00
2022-12-23T20:28:11.426Z,94.88
2022-12-23T20:31:22.587Z,94.82
2022-12-23T20:34:25.288Z,94.83
2022-12-23T20:37:27.654Z,95.07
2022-12-23T20:40:30.473Z,95.22
2022-12-23T20:43:34.718Z,95.28
2022-12-23T20:46:37.401Z,95.31
2022-12-23T20:49:39.815Z,95.45
2022-12-23T20:52:42.496Z,95.58
2022-12-23T20:55:44.871Z,95.44
2022-12-23T20:58:56.050Z,95.35
2022-12-23T21:01:59.358Z,95.30
2022-12-23T21:05:02.228Z,95.34
2022-12-23T21:08:04.829Z,95.21
2022-12-23T21:11:07.708Z,95.15
2022-12-23T21:14:10.609Z,95.16
2022-12-23T21:17:13.179Z,95.51
2022-12-23T21:20:15.560Z,95.52
2022-12-23T21:23:18.179Z,95.37
2022-12-23T21:26:23.174Z,95.22
2022-12-23T21:29:26.124Z,95.38
2022-12-23T21:32:28.469Z,95.49
2022-12-23T21:35:31.044Z,95.65
2022-12-23T21:38:39.225Z,95.85
2022-12-23T21:41:42.433Z,95.90
2022-12-23T21:44:44.727Z,95.92
2022-12-23T21:47:47.346Z,95.88
2022-12-23T21:50:49.631Z,95.86
2022-12-23T21:53:54.415Z,95.92
2022-12-23T21:56:56.765Z,96.13
2022-12-23T21:59:59.393Z,96.15
2022-12-23T22:03:01.761Z,95.95
2022-12-23T22:06:12.260Z,96.04
2022-12-23T22:09:19.135Z,95.93
2022-12-23T22:12:21.723Z,95.82
2022-12-23T22:15:24.121Z,95.72
2022-12-23T22:18:26.907Z,95.82
2022-12-23T22:21:31.965Z,95.95
2022-12-23T22:24:34.640Z,95.68
2022-12-23T22:27:37.053Z,95.70
2022-12-23T22:30:39.687Z,95.64
2022-12-23T22:33:42.231Z,95.95
2022-12-23T22:36:45.269Z,96.07
2022-12-23T22:39:47.769Z,96.04
2022-12-23T22:42:50.385Z,96.05
2022-12-23T22:46:00.488Z,96.04
2022-12-23T22:49:03.394Z,95.88
2022-12-23T22:52:05.700Z,95.82
2022-12-23T22:55:08.707Z,95.57
2022-12-23T22:58:11.083Z,95.58
2022-12-23T23:01:33.126Z,95.51
2022-12-23T23:04:35.574Z,95.37
2022-12-23T23:07:39.081Z,94.88
2022-12-23T23:10:41.892Z,94.73
2022-12-23T23:13:44.473Z,94.55
2022-12-23T23:16:47.431Z,94.38
2022-12-23T23:19:51.210Z,94.08
2022-12-23T23:22:53.636Z,94.04
2022-12-23T23:25:56.279Z,93.95
2022-12-23T23:28:58.590Z,93.72
2022-12-23T23:32:01.880Z,93.63
2022-12-23T23:35:10.565Z,93.75
2022-12-23T23:38:13.501Z,93.99
2022-12-23T23:41:20.668Z,94.22
2022-12-23T23:44:25.426Z,94.51
2022-12-23T23:47:27.779Z,94.79
2022-12-23T23:50:30.588Z,95.10
2022-12-23T23:53:33.008Z,95.28
2022-12-23T23:56:38.552Z,95.36
2022-12-23T23:59:41.597Z,95.37
